الصفحة الرئيسية
METAR-TAF:

METAR-TAF

مطار :

Rota, جزر ماريانا, الولايات المتحدة

دائرة عرض: 14-11N, خط طول: 145-15E, ارتفاع: 185 متر

مراقبة الطقس الحالي

تاريخ ووقت الإصدار 36 دقيقة قبل الساعة 04:50UTC
ريح 13 عقدة من الشرق
درجة الحرارة 28°درجة مئوية
الرطوبة 70%
ضغط 1011 hPa
الرؤية: 11.3 كم
غيوم متفرقة على ارتفاع 1500 قدم

METAR: PGRO 060450Z 09013KT 7SM SCT015 28/22 A2984

زمن: 15:26 (05:26 UTC)

توقعات

تاريخ ووقت الإصدار 5ساعات و 55 دقيقة قبل الساعة 23:31UTC
التوقعات صالحة من06 الساعة 00 UTC إلى 06 الساعة 24 UTC
ريح 12 عقدة من الشرق
الرؤية: 10 كم
غيوم متفرقة على ارتفاع 1800 قدم

TAF: PGRO 052331Z 0600/0624 09012KT P6SM SCT018

أرصاد الطقس والتوقعات من أكثر من 4000 مطار (تقارير الطقس للمطار METAR والتنبؤ بالطقس بالمطارTAF).

المحطات المتاحة هي النقط الصفراء والحمراء على الخريطة.

حرك المؤشر فوق النقطة لمعرفة اسم المحطة.

ثم انقر لمعرفة أرصاد وتوقعات الطقس.

لتغيير الخارطة: اضغط على الأزرار الخضراء مع رمز الصليب الأسود للتكبير. على الزر الأخضر مع شرطة للتصغير، أو على الأسهم الخضراء للخرائط المجاورة.


METAR-TAF: